Time;durP1;ratioP1;P1;durP2;ratioP2;P2;SDS_P1;SDS_P2;PMS_P1;PMS_P2;Temp;Humidity;BMP_temperature;BMP_pressure;BME280_temperature;BME280_humidity;BME280_pressure;Samples;Min_cycle;Max_cycle;Signal;HPM_P1;HPM_P2
2022/05/12 00:02:01;;;;;;;5.10;4.10;;;15.60;99.90;;;;;;4977575;28;20453;-75
2022/05/12 00:04:31;;;;;;;7.10;4.40;;;15.60;99.90;;;;;;4982635;28;20060;-75
2022/05/12 00:06:58;;;;;;;5.50;4.38;;;15.70;99.90;;;;;;4984118;28;20101;-74
2022/05/12 00:09:25;;;;;;;4.95;4.45;;;15.70;99.90;;;;;;4979115;28;20058;-75
2022/05/12 00:11:51;;;;;;;7.82;4.07;;;15.70;99.90;;;;;;4982098;28;20038;-75
2022/05/12 00:14:17;;;;;;;5.18;4.60;;;15.60;99.90;;;;;;4980058;28;20049;-75
2022/05/12 00:16:43;;;;;;;5.13;4.32;;;15.40;99.90;;;;;;4963338;28;20034;-75
2022/05/12 00:19:09;;;;;;;4.78;4.22;;;15.40;99.90;;;;;;4979835;28;20489;-75
2022/05/12 00:21:35;;;;;;;5.57;4.55;;;15.50;99.90;;;;;;4978356;28;20038;-75
2022/05/12 00:24:00;;;;;;;5.03;4.38;;;15.50;99.90;;;;;;4983552;28;20118;-75
2022/05/12 00:26:28;;;;;;;5.38;4.63;;;15.40;99.90;;;;;;4979290;28;20109;-75
2022/05/12 00:28:56;;;;;;;5.57;4.70;;;15.40;99.90;;;;;;4978229;28;20042;-75
2022/05/12 00:31:22;;;;;;;5.30;4.18;;;15.50;99.90;;;;;;4977260;28;20742;-75
2022/05/12 00:33:48;;;;;;;5.95;4.78;;;15.40;99.90;;;;;;4962293;28;20034;-74
2022/05/12 00:36:14;;;;;;;6.72;4.75;;;15.40;99.90;;;;;;4975929;28;20118;-75
2022/05/12 00:38:40;;;;;;;5.25;4.75;;;15.40;99.90;;;;;;4979389;28;20153;-74
2022/05/12 00:41:06;;;;;;;7.57;4.53;;;15.40;99.90;;;;;;4981755;28;20113;-74
2022/05/12 00:44:02;;;;;;;5.82;5.22;;;15.50;99.90;;;;;;4977908;28;20046;-75
2022/05/12 00:46:31;;;;;;;5.18;4.68;;;15.50;99.90;;;;;;4960550;28;20494;-75
2022/05/12 00:49:04;;;;;;;5.38;4.28;;;15.60;99.90;;;;;;4978237;28;20045;-75
2022/05/12 00:52:02;;;;;;;5.57;4.68;;;15.60;99.90;;;;;;4980984;28;20091;-75
2022/05/12 00:54:33;;;;;;;5.22;4.70;;;15.60;99.90;;;;;;4903616;29;20083;-75
2022/05/12 00:57:00;;;;;;;4.90;4.40;;;15.70;99.90;;;;;;4976732;28;20384;-75
2022/05/12 00:59:35;;;;;;;6.85;5.13;;;15.60;99.90;;;;;;4978011;28;20038;-75
2022/05/12 01:02:08;;;;;;;5.85;4.90;;;15.60;99.90;;;;;;4976462;28;20066;-75
2022/05/12 01:04:33;;;;;;;5.10;4.35;;;15.60;99.90;;;;;;4965712;28;20030;-75
2022/05/12 01:06:59;;;;;;;5.15;4.57;;;15.70;99.90;;;;;;4976617;28;20389;-75
2022/05/12 01:09:27;;;;;;;7.75;4.93;;;15.70;99.90;;;;;;4965996;28;20031;-76
2022/05/12 01:11:54;;;;;;;5.93;4.72;;;15.50;99.90;;;;;;4980029;28;20034;-74
2022/05/12 01:14:19;;;;;;;6.13;4.65;;;15.50;99.90;;;;;;4978550;28;20478;-75
2022/05/12 01:16:50;;;;;;;5.07;4.40;;;15.40;99.90;;;;;;4977153;28;20034;-75
2022/05/12 01:19:19;;;;;;;5.47;4.75;;;15.40;99.90;;;;;;4978809;28;20453;-75
2022/05/12 01:21:47;;;;;;;4.68;4.13;;;15.70;99.90;;;;;;4962077;28;20030;-74
2022/05/12 01:24:14;;;;;;;6.40;4.40;;;15.70;99.90;;;;;;4978377;28;20034;-75
2022/05/12 01:26:40;;;;;;;5.70;5.18;;;15.60;99.90;;;;;;4980258;28;20095;-75
2022/05/12 01:29:07;;;;;;;5.00;4.13;;;15.60;99.90;;;;;;4977837;28;20044;-75
2022/05/12 01:31:34;;;;;;;5.75;4.43;;;15.70;99.90;;;;;;4962168;28;20129;-75
2022/05/12 01:34:01;;;;;;;7.68;4.63;;;15.90;99.90;;;;;;4983961;28;20030;-75
2022/05/12 01:36:27;;;;;;;6.03;4.53;;;16.00;99.90;;;;;;4983253;28;20026;-75
2022/05/12 01:38:52;;;;;;;6.18;4.97;;;16.10;99.90;;;;;;4978775;28;20046;-75
2022/05/12 01:41:19;;;;;;;4.63;4.00;;;16.10;99.90;;;;;;4983779;28;20092;-75
2022/05/12 01:43:45;;;;;;;5.07;4.00;;;16.20;99.90;;;;;;4981849;28;20034;-74
2022/05/12 01:46:14;;;;;;;8.23;4.70;;;16.20;99.60;;;;;;4979076;28;20113;-75
2022/05/12 01:48:41;;;;;;;8.35;4.88;;;16.20;99.40;;;;;;4978719;28;20065;-75
2022/05/12 01:51:09;;;;;;;4.43;4.00;;;16.30;99.00;;;;;;4981653;28;20390;-75
2022/05/12 01:53:35;;;;;;;3.88;3.53;;;16.30;98.50;;;;;;4980585;28;20048;-74
2022/05/12 01:56:01;;;;;;;6.90;3.97;;;16.30;98.20;;;;;;4982716;28;20039;-74
2022/05/12 01:58:27;;;;;;;5.40;3.70;;;16.40;98.10;;;;;;4978455;28;20034;-75
2022/05/12 02:00:53;;;;;;;6.28;4.20;;;16.40;97.50;;;;;;4984467;28;20399;-75
2022/05/12 02:03:21;;;;;;;5.18;4.20;;;16.40;97.20;;;;;;4952294;28;20051;-75
2022/05/12 02:05:53;;;;;;;6.05;3.80;;;16.50;96.80;;;;;;4950603;28;20391;-75
2022/05/12 02:08:22;;;;;;;5.88;3.72;;;16.50;96.40;;;;;;4950152;28;20086;-74
2022/05/12 02:10:51;;;;;;;5.03;3.38;;;16.60;96.30;;;;;;4958278;28;20035;-74
2022/05/12 02:13:25;;;;;;;6.95;3.35;;;16.60;96.40;;;;;;4956663;28;20031;-75
2022/05/12 02:15:56;;;;;;;7.05;4.00;;;16.60;96.40;;;;;;4957704;28;20376;-75
2022/05/12 02:18:27;;;;;;;12.43;4.28;;;16.60;97.10;;;;;;4953837;28;20038;-74
2022/05/12 02:20:53;;;;;;;8.30;4.32;;;16.40;97.70;;;;;;4949240;28;20571;-75
2022/05/12 02:23:22;;;;;;;5.80;3.90;;;16.20;98.40;;;;;;4950963;28;20074;-74
2022/05/12 02:25:48;;;;;;;7.35;4.40;;;16.20;98.90;;;;;;4953754;28;20075;-74
2022/05/12 02:28:14;;;;;;;7.03;4.05;;;16.10;98.70;;;;;;4947571;28;20073;-74
2022/05/12 02:40:46;;;;;;;7.63;3.80;;;16.30;96.70;;;;;;4942158;28;20494;-75
2022/05/12 02:43:24;;;;;;;6.78;3.63;;;16.40;96.70;;;;;;4944775;28;20023;-74
2022/05/12 02:45:54;;;;;;;;;;;16.40;96.30;;;;;;4946647;28;20109;-74
2022/05/12 02:48:26;;;;;;;4.57;3.50;;;16.40;96.40;;;;;;4947650;28;19938;-74
2022/05/12 02:51:06;;;;;;;5.32;4.00;;;16.40;95.70;;;;;;4954812;28;20023;-74
2022/05/12 02:53:33;;;;;;;4.43;3.38;;;16.40;95.70;;;;;;4950779;28;20042;-75
2022/05/12 02:56:00;;;;;;;5.65;3.72;;;16.40;95.70;;;;;;4941517;28;20039;-74
2022/05/12 02:58:27;;;;;;;5.10;3.67;;;16.40;95.50;;;;;;4947257;28;20039;-74
2022/05/12 03:00:53;;;;;;;4.57;3.63;;;16.40;95.50;;;;;;4945997;28;20047;-75
2022/05/12 03:03:19;;;;;;;4.07;3.55;;;16.40;96.20;;;;;;4981109;28;20105;-74
2022/05/12 03:05:45;;;;;;;5.65;3.58;;;16.30;95.80;;;;;;4983859;28;20038;-75
2022/05/12 03:08:17;;;;;;;4.13;3.55;;;16.30;95.70;;;;;;4962050;28;20470;-74
2022/05/12 03:10:54;;;;;;;3.85;3.55;;;16.30;96.20;;;;;;4982208;28;20045;-75
2022/05/12 03:13:30;;;;;;;;;;;;;;;;;;;;;
2022/05/12 03:15:56;;;;;;;4.00;3.30;;;16.30;95.60;;;;;;4981776;28;20046;-75
2022/05/12 03:18:22;;;;;;;4.35;3.72;;;16.30;95.90;;;;;;4987518;28;20121;-74
2022/05/12 03:20:48;;;;;;;5.78;4.00;;;16.30;95.70;;;;;;4987978;28;20026;-75
2022/05/12 03:23:14;;;;;;;4.30;3.70;;;16.30;95.20;;;;;;4985978;28;20599;-75
2022/05/12 03:25:41;;;;;;;3.72;3.38;;;16.40;95.50;;;;;;4985217;28;20034;-75
2022/05/12 03:28:06;;;;;;;5.30;3.97;;;16.40;95.30;;;;;;4992767;28;20035;-74
2022/05/12 03:30:32;;;;;;;4.07;3.45;;;16.40;95.00;;;;;;4981136;28;20076;-75
2022/05/12 03:32:58;;;;;;;3.85;3.10;;;16.50;94.60;;;;;;4989405;28;20031;-73
2022/05/12 03:35:24;;;;;;;5.30;3.75;;;16.50;94.80;;;;;;4983310;28;20054;-74
2022/05/12 03:37:50;;;;;;;3.40;3.10;;;16.50;94.90;;;;;;4974585;28;20105;-75
2022/05/12 03:40:17;;;;;;;3.72;3.33;;;16.60;94.20;;;;;;4973524;28;20038;-74
2022/05/12 03:42:44;;;;;;;3.97;3.25;;;16.60;95.20;;;;;;4972674;28;20030;-74
2022/05/12 03:45:10;;;;;;;4.20;3.00;;;16.50;94.50;;;;;;4972490;28;20034;-75
2022/05/12 03:47:38;;;;;;;5.75;3.28;;;16.50;94.60;;;;;;4989136;28;20125;-74
2022/05/12 03:50:16;;;;;;;5.43;3.30;;;16.50;94.30;;;;;;4987479;28;20038;-74
2022/05/12 03:52:42;;;;;;;4.40;2.90;;;16.50;94.60;;;;;;4992398;28;20109;-75
2022/05/12 03:55:11;;;;;;;4.55;3.20;;;16.50;94.30;;;;;;4983572;28;20474;-75
2022/05/12 03:57:38;;;;;;;5.60;3.33;;;16.50;94.80;;;;;;4958854;28;20050;-75
2022/05/12 04:00:07;;;;;;;3.47;2.92;;;16.50;95.20;;;;;;4972525;28;20033;-75
2022/05/12 04:02:33;;;;;;;2.88;2.60;;;16.40;94.80;;;;;;4984446;28;20066;-75
2022/05/12 04:04:59;;;;;;;3.20;2.90;;;16.40;95.40;;;;;;4979484;28;20068;-75
2022/05/12 04:07:28;;;;;;;3.45;3.15;;;16.40;95.80;;;;;;4990576;28;20023;-74
2022/05/12 04:09:54;;;;;;;3.45;3.03;;;16.40;96.50;;;;;;4987176;28;20281;-74
2022/05/12 04:12:19;;;;;;;5.20;2.78;;;16.30;96.70;;;;;;4983200;28;20039;-74
2022/05/12 04:14:45;;;;;;;6.68;3.05;;;16.30;95.60;;;;;;4985642;28;20066;-75
2022/05/12 04:17:15;;;;;;;3.45;2.78;;;16.30;96.50;;;;;;4987901;28;20030;-75
2022/05/12 04:19:45;;;;;;;3.55;2.78;;;16.20;96.10;;;;;;4980121;28;20030;-75
2022/05/12 04:22:10;;;;;;;3.83;2.88;;;16.30;95.80;;;;;;4979637;28;20043;-74
2022/05/12 04:24:36;;;;;;;3.70;3.33;;;16.20;96.50;;;;;;4968033;28;20104;-75
2022/05/12 04:27:02;;;;;;;4.07;3.00;;;16.20;96.80;;;;;;4986770;28;20055;-75
2022/05/12 04:29:28;;;;;;;3.40;2.80;;;16.20;97.00;;;;;;4978560;28;20042;-75
2022/05/12 04:31:54;;;;;;;6.60;3.55;;;16.20;96.80;;;;;;4977321;28;20053;-75
2022/05/12 04:37:04;;;;;;;4.82;2.92;;;16.20;97.00;;;;;;4968160;28;20104;-75
2022/05/12 04:39:31;;;;;;;5.35;3.40;;;16.20;96.50;;;;;;4992061;28;20053;-75
2022/05/12 04:41:57;;;;;;;6.35;3.45;;;16.20;96.80;;;;;;4984645;28;20421;-75
2022/05/12 04:44:23;;;;;;;4.72;3.00;;;16.20;96.80;;;;;;4987332;28;20030;-75
2022/05/12 04:46:49;;;;;;;4.10;2.67;;;16.20;96.60;;;;;;4974015;28;20081;-74
2022/05/12 04:49:16;;;;;;;3.35;3.05;;;16.20;97.00;;;;;;4997117;28;20049;-75
2022/05/12 04:51:42;;;;;;;5.60;3.00;;;16.20;97.20;;;;;;4979306;28;20096;-74
2022/05/12 04:54:09;;;;;;;4.32;3.28;;;16.30;97.20;;;;;;4983023;28;20038;-75
2022/05/12 04:56:36;;;;;;;6.45;3.35;;;16.30;97.40;;;;;;4959913;28;20042;-74
2022/05/12 04:59:03;;;;;;;5.95;3.13;;;16.30;97.40;;;;;;4965042;28;20049;-75
2022/05/12 05:01:29;;;;;;;5.35;3.17;;;16.40;97.10;;;;;;4979659;28;20050;-74
2022/05/12 05:03:59;;;;;;;3.42;2.95;;;16.40;97.40;;;;;;4988486;28;20053;-75
2022/05/12 05:06:29;;;;;;;3.80;3.00;;;16.40;97.50;;;;;;4965287;28;20018;-75
2022/05/12 05:08:54;;;;;;;4.13;2.95;;;16.50;97.20;;;;;;4989143;28;20081;-74
2022/05/12 05:11:21;;;;;;;4.38;3.00;;;16.50;97.80;;;;;;4981114;28;20030;-74
2022/05/12 05:13:47;;;;;;;4.88;3.47;;;16.60;95.30;;;;;;4959936;28;22131;-75
2022/05/12 05:16:13;;;;;;;10.63;3.40;;;16.70;96.10;;;;;;4987211;28;20050;-75
2022/05/12 05:18:39;;;;;;;4.28;3.15;;;16.70;95.10;;;;;;4976867;28;20031;-74
2022/05/12 05:21:05;;;;;;;4.30;2.95;;;16.80;94.50;;;;;;4986562;28;20166;-74
2022/05/12 05:23:35;;;;;;;5.15;3.20;;;16.80;95.50;;;;;;4986494;28;20030;-74
2022/05/12 05:26:01;;;;;;;3.20;2.90;;;16.80;96.70;;;;;;4980029;28;20038;-75
2022/05/12 05:28:27;;;;;;;7.85;3.47;;;16.80;96.50;;;;;;4982948;28;20208;-74
2022/05/12 05:30:54;;;;;;;5.78;3.25;;;16.80;98.40;;;;;;4981281;28;20581;-75
2022/05/12 05:33:20;;;;;;;4.78;2.80;;;16.90;98.50;;;;;;4984691;28;20046;-74
2022/05/12 05:35:46;;;;;;;4.80;3.22;;;17.00;95.10;;;;;;4984661;28;20062;-75
2022/05/12 05:38:13;;;;;;;6.20;3.10;;;17.10;95.70;;;;;;4986758;28;20049;-75
2022/05/12 05:40:38;;;;;;;5.65;2.80;;;17.20;93.90;;;;;;4982918;28;20030;-74
2022/05/12 05:43:04;;;;;;;3.17;2.70;;;17.30;94.30;;;;;;4979426;28;20041;-75
2022/05/12 05:45:30;;;;;;;3.70;2.90;;;17.30;93.00;;;;;;4979662;28;20474;-75
2022/05/12 05:47:59;;;;;;;4.30;3.72;;;17.40;93.20;;;;;;4980559;28;20561;-74
2022/05/12 05:53:23;;;;;;;5.22;3.20;;;17.50;93.60;;;;;;4989694;28;20047;-74
2022/05/12 05:53:33;;;;;;;5.97;3.10;;;17.50;93.20;;;;;;4982812;28;20497;-74
2022/05/12 05:56:00;;;;;;;6.68;3.35;;;17.60;92.60;;;;;;4980250;28;20046;-74
2022/05/12 05:58:28;;;;;;;6.10;3.00;;;17.60;93.20;;;;;;4986020;28;20038;-75
2022/05/12 06:00:55;;;;;;;4.28;3.00;;;17.70;94.40;;;;;;4985275;28;20145;-75
2022/05/12 06:03:22;;;;;;;5.03;3.78;;;17.80;93.70;;;;;;4982679;28;20120;-76
2022/05/12 06:05:48;;;;;;;5.20;2.75;;;17.80;92.80;;;;;;4983053;28;20035;-74
2022/05/12 06:08:17;;;;;;;3.88;2.70;;;17.90;91.70;;;;;;4986496;28;20096;-72
2022/05/12 06:10:44;;;;;;;3.20;2.88;;;17.90;92.50;;;;;;4959191;28;20062;-74
2022/05/12 06:13:10;;;;;;;7.15;3.17;;;18.00;94.50;;;;;;4967512;28;20039;-73
2022/05/12 06:15:37;;;;;;;5.30;3.25;;;18.10;93.20;;;;;;4984424;28;20034;-73
2022/05/12 06:18:15;;;;;;;3.22;2.92;;;18.10;93.50;;;;;;4983162;28;20483;-74
2022/05/12 06:20:43;;;;;;;2.88;2.58;;;18.10;94.30;;;;;;4978028;28;20030;-75
2022/05/12 06:23:11;;;;;;;4.75;3.03;;;18.20;93.50;;;;;;4967059;28;20030;-74
2022/05/12 06:25:37;;;;;;;4.93;2.90;;;18.20;94.50;;;;;;4984182;28;20072;-74
2022/05/12 06:28:03;;;;;;;4.13;2.75;;;18.40;93.70;;;;;;4982426;28;20053;-73
2022/05/12 06:30:29;;;;;;;10.57;3.25;;;18.50;94.00;;;;;;4983933;28;20100;-75
2022/05/12 06:32:56;;;;;;;3.95;2.63;;;18.60;91.70;;;;;;4965887;28;20038;-74
2022/05/12 06:35:23;;;;;;;2.60;2.40;;;18.70;91.90;;;;;;4980495;28;20289;-74
2022/05/12 06:37:49;;;;;;;2.78;2.45;;;18.90;86.30;;;;;;4978957;28;20092;-74
2022/05/12 06:40:16;;;;;;;4.22;2.67;;;19.10;85.90;;;;;;4982388;28;20425;-74
2022/05/12 06:42:42;;;;;;;3.67;2.90;;;19.20;81.70;;;;;;4977908;28;20022;-74
2022/05/12 06:45:15;;;;;;;3.45;2.55;;;19.40;82.90;;;;;;4978847;28;20031;-74
2022/05/12 06:47:50;;;;;;;3.55;2.55;;;19.50;76.40;;;;;;4979778;28;20027;-74
2022/05/12 06:50:20;;;;;;;3.03;2.75;;;19.50;75.00;;;;;;4976753;28;20043;-74
2022/05/12 06:52:46;;;;;;;5.68;2.33;;;19.60;77.40;;;;;;4986000;28;20030;-74
2022/05/12 06:55:13;;;;;;;4.05;2.33;;;19.70;77.20;;;;;;4979202;28;20038;-74
2022/05/12 06:57:39;;;;;;;2.65;2.38;;;20.00;78.20;;;;;;4966935;28;20034;-74
2022/05/12 07:00:08;;;;;;;2.55;2.20;;;20.20;74.60;;;;;;4980985;28;20042;-74
2022/05/12 07:02:35;;;;;;;4.47;2.60;;;20.30;70.80;;;;;;4961737;28;20154;-74
2022/05/12 07:05:01;;;;;;;3.00;2.60;;;20.60;73.50;;;;;;4980695;28;20031;-74
2022/05/12 07:07:28;;;;;;;4.75;2.58;;;20.70;71.10;;;;;;4981482;28;20403;-74
2022/05/12 07:09:54;;;;;;;2.70;2.50;;;20.80;66.30;;;;;;4966335;28;20525;-74
2022/05/12 07:12:26;;;;;;;3.88;2.63;;;20.90;67.40;;;;;;4975205;28;20043;-74
2022/05/12 07:14:52;;;;;;;4.65;2.50;;;21.10;67.10;;;;;;4980248;28;20026;-74
2022/05/12 07:17:21;;;;;;;3.17;2.30;;;21.10;66.10;;;;;;4985236;28;20508;-74
2022/05/12 07:19:48;;;;;;;5.10;3.05;;;21.20;65.80;;;;;;4981197;28;20471;-73
2022/05/12 07:27:43;;;;;;;2.92;2.40;;;21.70;65.60;;;;;;4989639;28;20049;-73
2022/05/12 07:30:09;;;;;;;3.67;2.80;;;21.80;60.90;;;;;;4986448;28;20026;-74
2022/05/12 07:32:37;;;;;;;2.92;2.63;;;21.80;66.00;;;;;;4960004;28;20081;-74
2022/05/12 07:35:06;;;;;;;4.03;2.40;;;21.80;61.00;;;;;;4981450;28;20031;-74
2022/05/12 07:37:32;;;;;;;2.47;2.28;;;21.80;63.40;;;;;;4978922;28;20047;-74
2022/05/12 07:39:58;;;;;;;3.53;2.10;;;22.00;65.20;;;;;;4981642;28;20034;-75
2022/05/12 07:42:24;;;;;;;2.65;1.90;;;21.60;58.30;;;;;;4990196;28;20399;-74
2022/05/12 07:44:49;;;;;;;2.65;2.45;;;21.60;57.90;;;;;;4976327;28;20049;-74
2022/05/12 07:47:15;;;;;;;4.90;2.53;;;21.60;61.40;;;;;;4977545;28;20039;-74
2022/05/12 07:49:42;;;;;;;4.53;2.63;;;21.70;60.90;;;;;;4989578;28;20037;-74
2022/05/12 07:52:10;;;;;;;4.65;2.25;;;21.80;61.70;;;;;;4992563;28;20150;-75
2022/05/12 07:54:37;;;;;;;3.45;2.60;;;21.90;63.00;;;;;;4971259;28;20481;-75
2022/05/12 07:57:11;;;;;;;4.05;2.50;;;21.90;58.30;;;;;;4993458;28;20105;-74
2022/05/12 07:59:37;;;;;;;3.10;2.63;;;21.60;56.90;;;;;;4962747;28;20133;-74
2022/05/12 08:02:03;;;;;;;4.25;2.65;;;21.30;55.60;;;;;;4978083;28;20055;-75
2022/05/12 08:04:29;;;;;;;4.93;2.47;;;21.20;56.90;;;;;;4986906;28;20049;-73
2022/05/12 08:06:54;;;;;;;4.00;2.50;;;21.30;58.30;;;;;;4981975;28;20030;-74
2022/05/12 08:09:21;;;;;;;4.63;2.42;;;21.30;57.10;;;;;;4984536;28;20042;-73
2022/05/12 08:11:47;;;;;;;2.78;2.50;;;21.20;56.80;;;;;;4970082;28;20046;-73
2022/05/12 08:14:13;;;;;;;2.78;2.47;;;21.40;58.90;;;;;;4967662;28;20034;-75
2022/05/12 08:16:39;;;;;;;7.75;2.83;;;21.50;59.10;;;;;;4992923;28;20042;-74
2022/05/12 08:19:04;;;;;;;4.10;2.80;;;21.50;59.40;;;;;;4980839;28;20089;-74
2022/05/12 08:21:30;;;;;;;3.75;2.65;;;21.50;60.40;;;;;;4986919;28;20034;-74
2022/05/12 08:24:01;;;;;;;3.33;2.92;;;21.40;62.40;;;;;;4880374;28;20578;-74
2022/05/12 08:26:26;;;;;;;2.88;2.60;;;21.30;57.80;;;;;;4984581;28;20038;-73
2022/05/12 08:28:52;;;;;;;5.03;3.03;;;21.50;62.00;;;;;;4981838;28;20251;-73
2022/05/12 08:31:21;;;;;;;6.00;2.88;;;21.60;60.90;;;;;;4976860;28;20137;-73
2022/05/12 08:33:47;;;;;;;4.78;3.00;;;21.60;59.40;;;;;;4982524;28;20023;-74
2022/05/12 08:36:13;;;;;;;3.17;2.88;;;21.70;60.90;;;;;;4966151;28;20037;-74
2022/05/12 08:38:40;;;;;;;3.85;2.33;;;21.90;59.90;;;;;;4984833;28;20042;-74
2022/05/12 08:41:16;;;;;;;3.65;2.55;;;21.90;60.00;;;;;;4980790;28;20077;-74
2022/05/12 08:43:45;;;;;;;3.45;2.80;;;22.10;59.60;;;;;;4983653;28;20675;-74
2022/05/12 08:46:15;;;;;;;3.40;2.70;;;22.30;55.40;;;;;;4986836;28;20034;-74
2022/05/12 08:48:44;;;;;;;3.28;2.72;;;22.50;56.70;;;;;;4979386;28;20034;-74
2022/05/12 08:51:19;;;;;;;4.28;3.08;;;22.60;55.00;;;;;;4982968;28;20031;-73
2022/05/12 08:53:54;;;;;;;5.65;3.15;;;22.70;55.90;;;;;;4981161;28;20034;-74
2022/05/12 08:56:22;;;;;;;3.63;2.72;;;22.80;63.20;;;;;;4978789;28;20092;-74
2022/05/12 08:58:49;;;;;;;;;;;22.90;52.80;;;;;;4982992;28;20930;-73
2022/05/12 09:01:36;;;;;;;4.80;2.72;;;23.00;55.70;;;;;;4963439;28;19922;-74
2022/05/12 09:04:17;;;;;;;4.13;3.63;;;22.90;57.50;;;;;;4982103;28;20397;-74
2022/05/12 09:06:55;;;;;;;5.22;2.95;;;22.80;58.90;;;;;;4980342;28;20363;-74
2022/05/12 09:09:23;;;;;;;;;;;23.20;54.80;;;;;;4986784;28;20038;-74
2022/05/12 09:12:23;;;;;;;3.58;2.42;;;22.90;55.90;;;;;;4985331;28;19913;-74
2022/05/12 09:15:13;;;;;;;6.97;3.10;;;23.20;56.30;;;;;;4980154;28;20082;-74
2022/05/12 09:17:49;;;;;;;4.65;3.42;;;23.50;55.90;;;;;;4986790;28;20769;-74
2022/05/12 09:20:16;;;;;;;3.10;2.80;;;23.70;55.50;;;;;;4980555;28;20478;-74
2022/05/12 09:22:42;;;;;;;3.78;3.33;;;23.60;50.20;;;;;;4962496;28;20042;-74
2022/05/12 09:25:10;;;;;;;3.72;3.22;;;23.50;60.00;;;;;;4981256;28;20089;-74
2022/05/12 09:27:37;;;;;;;;;;;24.10;53.90;;;;;;4977872;28;20081;-74
2022/05/12 09:30:07;;;;;;;6.82;3.05;;;24.30;56.30;;;;;;4988568;28;19917;-74
2022/05/12 09:32:37;;;;;;;4.35;2.80;;;23.90;52.10;;;;;;4982653;28;20042;-74
2022/05/12 09:35:09;;;;;;;3.60;3.22;;;23.90;53.80;;;;;;4987268;28;20440;-74
2022/05/12 09:37:40;;;;;;;3.78;2.95;;;24.10;55.30;;;;;;4966206;28;20046;-74
2022/05/12 09:40:17;;;;;;;5.40;3.38;;;24.10;55.80;;;;;;4980200;28;21270;-74
2022/05/12 09:42:49;;;;;;;3.72;3.30;;;24.20;54.90;;;;;;4962539;28;20034;-74
2022/05/12 09:45:23;;;;;;;4.28;3.15;;;24.10;54.80;;;;;;4961513;28;20544;-74
2022/05/12 09:47:49;;;;;;;7.85;3.03;;;23.80;55.00;;;;;;4977665;28;20057;-74
2022/05/12 09:50:26;;;;;;;5.38;3.28;;;24.10;54.30;;;;;;4977228;28;20030;-74
2022/05/12 09:52:57;;;;;;;4.47;3.45;;;23.70;55.40;;;;;;4980199;28;20113;-74
2022/05/12 09:55:30;;;;;;;3.85;3.47;;;23.50;56.70;;;;;;4982437;28;20148;-73
2022/05/12 09:58:15;;;;;;;5.78;3.25;;;23.30;56.90;;;;;;4984846;28;20034;-74
2022/05/12 10:00:49;;;;;;;4.82;3.03;;;23.20;54.30;;;;;;4982948;28;20073;-74
2022/05/12 10:09:06;;;;;;;6.05;3.60;;;23.10;58.00;;;;;;4965895;28;20034;-74
2022/05/12 10:12:08;;;;;;;4.10;3.42;;;23.20;64.40;;;;;;4966253;28;20122;-73
2022/05/12 10:15:00;;;;;;;3.40;3.10;;;23.70;57.70;;;;;;4963252;28;20034;-74
2022/05/12 10:17:45;;;;;;;5.50;3.97;;;23.60;62.60;;;;;;4951022;28;20217;-74
2022/05/12 10:20:21;;;;;;;5.15;3.17;;;23.70;64.20;;;;;;4968265;28;20438;-74
2022/05/12 10:23:05;;;;;;;4.60;3.28;;;23.90;58.10;;;;;;4953931;28;20094;-74
2022/05/12 10:25:58;;;;;;;5.85;4.10;;;23.90;55.50;;;;;;4958897;28;20027;-74
2022/05/12 10:28:32;;;;;;;4.05;3.55;;;23.60;54.20;;;;;;4968922;28;20038;-74
2022/05/12 10:31:11;;;;;;;4.45;3.40;;;24.00;56.40;;;;;;4961276;28;20043;-74
2022/05/12 10:33:49;;;;;;;6.05;3.58;;;24.40;56.00;;;;;;4952259;28;20130;-75
2022/05/12 10:36:22;;;;;;;5.32;3.78;;;24.40;58.60;;;;;;4959600;28;20042;-74
2022/05/12 10:39:37;;;;;;;5.75;3.60;;;24.50;56.40;;;;;;4956559;28;21150;-74
2022/05/12 10:42:11;;;;;;;4.95;3.97;;;24.40;53.10;;;;;;4961978;28;20062;-74
2022/05/12 10:44:55;;;;;;;4.30;3.45;;;24.60;57.50;;;;;;4964299;28;20475;-75
2022/05/12 10:48:02;;;;;;;5.13;3.50;;;24.40;54.80;;;;;;4966871;28;20027;-75
2022/05/12 10:50:51;;;;;;;3.88;3.55;;;24.40;53.70;;;;;;4901252;29;20067;-74
2022/05/12 10:53:35;;;;;;;4.50;3.60;;;24.30;60.20;;;;;;4955662;28;20043;-75
2022/05/12 10:56:19;;;;;;;4.65;4.20;;;24.70;54.20;;;;;;4969055;28;20023;-75
2022/05/12 10:58:56;;;;;;;5.45;3.92;;;24.50;53.90;;;;;;4957450;28;20417;-74
2022/05/12 11:01:38;;;;;;;7.18;3.50;;;24.70;53.70;;;;;;4959866;28;20061;-74
2022/05/12 11:04:07;;;;;;;5.07;3.83;;;24.70;53.60;;;;;;4981987;28;20042;-74
2022/05/12 11:06:43;;;;;;;5.45;3.63;;;24.90;58.40;;;;;;4983568;28;20033;-74
2022/05/12 11:09:24;;;;;;;5.25;3.53;;;24.80;54.20;;;;;;4980615;28;20034;-75
2022/05/12 11:11:51;;;;;;;5.82;3.80;;;24.70;57.90;;;;;;4981326;28;20038;-74
2022/05/12 11:14:31;;;;;;;7.35;3.40;;;24.50;54.50;;;;;;4977785;28;20070;-75
2022/05/12 11:17:02;;;;;;;4.13;3.70;;;24.10;50.90;;;;;;4977919;28;20035;-75
2022/05/12 11:19:28;;;;;;;4.15;3.75;;;24.20;56.60;;;;;;4982522;28;20019;-75
2022/05/12 11:21:53;;;;;;;3.97;2.90;;;24.40;54.90;;;;;;4982510;28;20476;-75
2022/05/12 11:24:28;;;;;;;6.93;4.10;;;24.30;53.80;;;;;;4989386;28;20557;-74
2022/05/12 11:27:17;;;;;;;6.47;3.95;;;24.20;54.70;;;;;;4979599;28;20567;-75
2022/05/12 11:30:21;;;;;;;4.30;3.88;;;24.40;53.40;;;;;;4973232;28;20093;-74
2022/05/12 11:33:02;;;;;;;4.55;4.00;;;24.40;51.50;;;;;;4979999;28;20125;-75
2022/05/12 11:35:46;;;;;;;4.55;3.75;;;23.90;52.10;;;;;;4978328;28;20035;-75
2022/05/12 11:38:52;;;;;;;6.13;3.83;;;23.70;54.20;;;;;;4986551;28;20041;-75
2022/05/12 11:41:20;;;;;;;4.22;3.83;;;24.00;55.90;;;;;;4944449;28;20040;-75
2022/05/12 11:46:37;;;;;;;3.72;3.28;;;23.90;51.50;;;;;;4973810;28;20457;-75
2022/05/12 11:49:08;;;;;;;5.53;3.95;;;24.10;54.40;;;;;;4984553;28;20062;-75
2022/05/12 11:52:20;;;;;;;4.93;3.85;;;24.20;54.40;;;;;;4990599;28;20073;-74
2022/05/12 11:54:56;;;;;;;4.57;3.88;;;24.30;52.10;;;;;;4954617;28;20085;-75
2022/05/12 11:57:36;;;;;;;4.55;3.90;;;24.40;55.40;;;;;;4984419;28;20042;-74
2022/05/12 12:00:31;;;;;;;5.43;3.72;;;24.50;52.20;;;;;;4988837;28;20027;-75
2022/05/12 12:02:57;;;;;;;3.97;3.60;;;24.20;50.80;;;;;;4980210;28;20060;-75
2022/05/12 12:05:29;;;;;;;4.28;3.88;;;23.90;52.10;;;;;;4980609;28;20129;-74
2022/05/12 12:08:05;;;;;;;5.53;3.88;;;24.10;55.20;;;;;;4982765;28;20078;-75
2022/05/12 12:10:37;;;;;;;5.55;3.63;;;23.90;55.50;;;;;;4982889;28;20471;-75
2022/05/12 12:13:27;;;;;;;6.88;4.25;;;23.80;53.20;;;;;;4987003;28;20141;-75
2022/05/12 12:15:55;;;;;;;4.82;3.65;;;24.00;54.60;;;;;;4981958;28;20129;-75
2022/05/12 12:18:22;;;;;;;4.88;3.95;;;24.40;55.50;;;;;;4985993;28;20057;-75
2022/05/12 12:20:51;;;;;;;3.80;3.38;;;24.70;53.40;;;;;;4979086;28;20030;-74
2022/05/12 12:23:27;;;;;;;4.90;4.40;;;25.00;58.20;;;;;;4980369;28;20034;-75
2022/05/12 12:26:09;;;;;;;5.38;3.67;;;24.80;50.10;;;;;;4979470;28;20026;-75
2022/05/12 12:28:44;;;;;;;4.00;3.60;;;24.90;52.50;;;;;;4987457;28;20482;-75
2022/05/12 12:31:26;;;;;;;6.07;4.03;;;24.90;52.90;;;;;;4984084;28;20093;-75
2022/05/12 12:34:24;;;;;;;8.30;3.95;;;25.20;58.20;;;;;;4984815;28;20063;-75
2022/05/12 12:36:49;;;;;;;7.97;3.83;;;25.00;49.20;;;;;;4989286;28;20039;-75
2022/05/12 12:39:43;;;;;;;4.38;4.00;;;25.00;51.60;;;;;;4975554;28;20041;-74
2022/05/12 12:42:19;;;;;;;6.45;3.60;;;24.70;49.90;;;;;;4976471;28;20027;-75
2022/05/12 12:44:50;;;;;;;7.22;3.72;;;24.40;51.20;;;;;;4981188;28;20046;-74
2022/05/12 12:47:29;;;;;;;6.50;3.90;;;24.20;51.70;;;;;;4977282;28;20049;-74
2022/05/12 12:50:08;;;;;;;4.82;3.83;;;24.30;52.70;;;;;;4980367;28;20034;-75
2022/05/12 12:52:43;;;;;;;4.97;4.10;;;24.60;54.30;;;;;;4980327;28;20034;-74
2022/05/12 12:58:33;;;;;;;5.95;4.28;;;24.80;50.20;;;;;;4983211;28;20508;-75
2022/05/12 13:01:03;;;;;;;6.57;4.03;;;24.70;50.40;;;;;;4959016;28;20053;-75
2022/05/12 13:03:31;;;;;;;6.07;4.10;;;24.70;51.20;;;;;;4978934;28;20494;-74
2022/05/12 13:06:10;;;;;;;6.05;4.00;;;24.80;53.30;;;;;;4979971;28;20035;-74
2022/05/12 13:08:36;;;;;;;5.55;5.03;;;24.80;50.10;;;;;;4978198;28;20038;-74
2022/05/12 13:11:04;;;;;;;7.32;3.97;;;24.90;50.90;;;;;;4981457;28;20486;-75
2022/05/12 13:13:30;;;;;;;4.63;3.90;;;24.90;51.00;;;;;;4983155;28;20034;-75
2022/05/12 13:16:00;;;;;;;4.53;4.03;;;25.00;50.30;;;;;;4978508;28;20096;-75
2022/05/12 13:18:31;;;;;;;6.75;3.78;;;25.10;48.90;;;;;;4978264;28;20041;-75
2022/05/12 13:20:58;;;;;;;4.68;3.60;;;25.10;49.00;;;;;;4977253;28;20114;-74
2022/05/12 13:23:28;;;;;;;4.00;3.70;;;25.20;50.40;;;;;;4978202;28;20038;-74
2022/05/12 13:25:54;;;;;;;6.93;3.28;;;25.10;47.10;;;;;;4980390;28;20058;-75
2022/05/12 13:28:26;;;;;;;8.13;3.85;;;25.00;49.50;;;;;;4981258;28;20042;-75
2022/05/12 13:31:14;;;;;;;5.25;3.75;;;25.10;52.50;;;;;;4979026;28;20478;-75
2022/05/12 13:34:12;;;;;;;4.00;3.53;;;25.30;50.40;;;;;;4979821;28;20062;-75
2022/05/12 13:36:48;;;;;;;4.43;3.95;;;25.60;50.50;;;;;;4968366;28;20514;-75
2022/05/12 13:39:50;;;;;;;6.22;3.58;;;25.50;47.30;;;;;;4978578;28;20053;-75